createdAt,value
2023-05-04T00:02:13.135Z,1.70
2023-05-04T00:04:43.168Z,1.85
2023-05-04T00:07:11.119Z,2.17
2023-05-04T00:09:39.347Z,1.58
2023-05-04T00:12:08.275Z,2.13
2023-05-04T00:14:37.508Z,1.85
2023-05-04T00:17:07.029Z,2.20
2023-05-04T00:19:36.156Z,2.00
2023-05-04T00:22:04.080Z,1.95
2023-05-04T00:24:32.104Z,1.88
2023-05-04T00:27:03.033Z,1.60
2023-05-04T00:29:34.219Z,1.73
2023-05-04T00:32:02.657Z,1.70
2023-05-04T00:34:31.360Z,2.30
2023-05-04T00:36:59.485Z,2.25
2023-05-04T00:39:27.732Z,2.22
2023-05-04T00:41:56.191Z,2.65
2023-05-04T00:44:24.421Z,2.55
2023-05-04T00:46:53.505Z,2.78
2023-05-04T00:49:22.216Z,2.17
2023-05-04T00:51:51.096Z,2.58
2023-05-04T00:54:19.474Z,2.60
2023-05-04T00:56:47.980Z,2.50
2023-05-04T00:59:15.978Z,2.10
2023-05-04T01:01:44.310Z,2.17
2023-05-04T01:04:12.874Z,2.13
2023-05-04T01:07:02.555Z,2.30
2023-05-04T01:09:47.394Z,2.13
2023-05-04T01:12:38.653Z,2.20
2023-05-04T01:15:08.425Z,2.25
2023-05-04T01:17:39.444Z,2.30
2023-05-04T01:20:12.680Z,3.20
2023-05-04T01:22:40.737Z,2.58
2023-05-04T01:25:09.455Z,2.17
2023-05-04T01:27:58.063Z,2.15
2023-05-04T01:30:43.467Z,2.08
2023-05-04T01:33:11.894Z,2.17
2023-05-04T01:35:40.004Z,2.28
2023-05-04T01:38:08.257Z,2.35
2023-05-04T01:40:36.282Z,2.50
2023-05-04T01:43:04.672Z,2.80
2023-05-04T01:45:33.113Z,2.95
2023-05-04T01:48:01.394Z,2.92
2023-05-04T01:50:29.954Z,2.60
2023-05-04T01:52:58.188Z,2.45
2023-05-04T01:55:26.980Z,2.38
2023-05-04T01:57:55.071Z,2.58
2023-05-04T02:00:23.421Z,2.03
2023-05-04T02:02:51.584Z,2.40
2023-05-04T02:05:21.199Z,2.42
2023-05-04T02:07:50.148Z,2.35
2023-05-04T02:10:18.514Z,2.05
2023-05-04T02:12:46.675Z,2.47
2023-05-04T02:15:14.996Z,2.75
2023-05-04T02:17:45.154Z,2.70
2023-05-04T02:20:13.640Z,2.45
2023-05-04T02:22:44.121Z,2.17
2023-05-04T02:25:12.506Z,2.17
2023-05-04T02:27:41.102Z,2.40
2023-05-04T02:30:10.363Z,2.72
2023-05-04T02:32:38.783Z,2.22
2023-05-04T02:35:07.407Z,2.58
2023-05-04T02:37:36.249Z,2.53
2023-05-04T02:40:05.257Z,2.33
2023-05-04T02:42:33.506Z,2.65
2023-05-04T02:45:02.869Z,2.15
2023-05-04T02:47:30.968Z,2.42
2023-05-04T02:50:02.014Z,2.17
2023-05-04T02:52:32.207Z,2.28
2023-05-04T02:55:03.596Z,2.50
2023-05-04T02:57:32.005Z,2.15
2023-05-04T03:00:05.262Z,2.42
2023-05-04T03:02:33.788Z,2.25
2023-05-04T03:05:02.174Z,2.88
2023-05-04T03:07:30.861Z,2.35
2023-05-04T03:09:59.068Z,2.10
2023-05-04T03:12:27.923Z,2.33
2023-05-04T03:14:56.467Z,2.35
2023-05-04T03:17:24.602Z,2.42
2023-05-04T03:19:53.201Z,2.33
2023-05-04T03:22:21.516Z,2.33
2023-05-04T03:24:52.418Z,2.53
2023-05-04T03:27:21.713Z,2.22
2023-05-04T03:29:49.673Z,2.15
2023-05-04T03:32:17.859Z,2.20
2023-05-04T03:34:46.130Z,2.35
2023-05-04T03:37:15.448Z,2.13
2023-05-04T03:39:43.875Z,2.47
2023-05-04T03:42:11.987Z,2.28
2023-05-04T03:44:40.266Z,2.20
2023-05-04T03:47:08.526Z,2.47
2023-05-04T03:49:36.912Z,2.40
2023-05-04T03:52:05.296Z,2.20
2023-05-04T03:54:33.298Z,3.03
2023-05-04T03:57:04.726Z,2.25
2023-05-04T03:59:34.891Z,2.05
2023-05-04T04:05:47.711Z,2.53
2023-05-04T04:08:15.668Z,2.40
2023-05-04T04:10:43.811Z,1.85
2023-05-04T04:13:11.981Z,2.00
2023-05-04T04:15:41.565Z,2.40
2023-05-04T04:18:11.086Z,2.30
2023-05-04T04:20:39.637Z,2.30
2023-05-04T04:23:08.117Z,2.60
2023-05-04T04:25:36.835Z,2.20
2023-05-04T04:28:05.016Z,2.30
2023-05-04T04:30:33.067Z,2.35
2023-05-04T04:33:02.692Z,1.90
2023-05-04T04:35:30.866Z,2.13
2023-05-04T04:37:59.923Z,3.05
2023-05-04T04:40:29.229Z,2.70
2023-05-04T04:42:57.332Z,2.92
2023-05-04T04:45:26.124Z,2.45
2023-05-04T04:47:54.243Z,2.67
2023-05-04T04:50:22.456Z,2.22
2023-05-04T04:52:50.862Z,2.42
2023-05-04T04:55:18.957Z,2.20
2023-05-04T04:57:46.848Z,2.00
2023-05-04T05:00:15.214Z,2.40
2023-05-04T05:02:43.844Z,2.63
2023-05-04T05:05:13.252Z,2.30
2023-05-04T05:07:41.681Z,2.50
2023-05-04T05:10:10.374Z,2.30
2023-05-04T05:12:38.626Z,2.33
2023-05-04T05:15:07.694Z,2.50
2023-05-04T05:17:37.954Z,2.53
2023-05-04T05:20:12.946Z,2.60
2023-05-04T05:22:42.080Z,2.88
2023-05-04T05:25:10.357Z,2.38
2023-05-04T05:27:38.569Z,2.55
2023-05-04T05:30:08.476Z,2.38
2023-05-04T05:32:36.694Z,2.42
2023-05-04T05:35:05.878Z,3.42
2023-05-04T05:37:33.985Z,3.03
2023-05-04T05:40:02.375Z,2.65
2023-05-04T05:42:31.380Z,2.97
2023-05-04T05:44:59.619Z,3.58
2023-05-04T05:47:27.810Z,2.58
2023-05-04T05:49:55.918Z,2.65
2023-05-04T05:52:23.983Z,2.65
2023-05-04T05:54:52.141Z,3.13
2023-05-04T05:57:21.070Z,3.35
2023-05-04T05:59:49.352Z,2.75
2023-05-04T06:02:17.437Z,2.58
2023-05-04T06:04:45.670Z,2.60
2023-05-04T06:07:16.291Z,2.90
2023-05-04T06:09:44.285Z,2.55
2023-05-04T06:12:15.511Z,2.55
2023-05-04T06:14:43.951Z,2.95
2023-05-04T06:17:12.554Z,2.17
2023-05-04T06:19:40.993Z,2.83
2023-05-04T06:22:09.366Z,2.58
2023-05-04T06:24:38.078Z,2.55
2023-05-04T06:27:06.324Z,2.10
2023-05-04T06:29:34.578Z,2.70
2023-05-04T06:32:02.812Z,2.15
2023-05-04T06:34:33.639Z,2.72
2023-05-04T06:37:01.747Z,2.13
2023-05-04T06:39:30.221Z,2.03
2023-05-04T06:41:58.799Z,2.50
2023-05-04T06:44:29.247Z,3.28
2023-05-04T06:46:57.406Z,2.60
2023-05-04T06:49:25.590Z,2.92
2023-05-04T06:51:53.634Z,2.22
2023-05-04T06:54:21.718Z,2.30
2023-05-04T06:56:49.719Z,2.00
2023-05-04T06:59:20.594Z,1.67
2023-05-04T07:01:49.055Z,2.00
2023-05-04T07:04:17.297Z,1.98
2023-05-04T07:06:45.519Z,3.10
2023-05-04T07:09:13.738Z,1.70
2023-05-04T07:11:42.273Z,1.83
2023-05-04T07:14:10.564Z,1.90
2023-05-04T07:16:39.452Z,1.92
2023-05-04T07:19:07.591Z,1.90
2023-05-04T07:21:35.684Z,2.28
2023-05-04T07:24:04.969Z,1.55
2023-05-04T07:26:32.980Z,1.88
2023-05-04T07:29:01.530Z,1.60
2023-05-04T07:31:30.720Z,1.98
2023-05-04T07:33:59.057Z,1.45
2023-05-04T07:36:28.280Z,1.80
2023-05-04T07:38:57.122Z,2.03
2023-05-04T07:41:27.613Z,1.90
2023-05-04T07:43:55.557Z,1.80
2023-05-04T07:46:23.889Z,1.67
2023-05-04T07:48:51.998Z,1.75
2023-05-04T07:51:20.367Z,1.70
2023-05-04T07:53:48.950Z,1.60
2023-05-04T07:56:17.277Z,2.15
2023-05-04T07:58:45.151Z,1.52
2023-05-04T08:01:13.043Z,1.70
2023-05-04T08:03:41.588Z,1.63
2023-05-04T08:06:10.266Z,1.92
2023-05-04T08:08:38.577Z,1.98
2023-05-04T08:11:19.051Z,2.03
2023-05-04T08:13:48.976Z,2.15
2023-05-04T08:16:17.127Z,1.80
2023-05-04T08:18:45.302Z,2.20
2023-05-04T08:21:13.565Z,1.95
2023-05-04T08:23:42.490Z,2.25
2023-05-04T08:26:13.886Z,1.77
2023-05-04T08:28:42.198Z,2.05
2023-05-04T08:31:10.602Z,2.50
2023-05-04T08:33:42.171Z,2.20
2023-05-04T08:36:10.767Z,2.00
2023-05-04T08:38:38.986Z,2.22
2023-05-04T08:41:07.989Z,1.50
2023-05-04T08:43:37.271Z,1.67
2023-05-04T08:46:06.781Z,2.28
2023-05-04T08:48:35.276Z,1.67
2023-05-04T08:51:04.950Z,2.20
2023-05-04T08:53:33.812Z,2.00
2023-05-04T08:56:04.873Z,1.70
2023-05-04T08:58:38.350Z,2.10
2023-05-04T09:01:08.749Z,1.90
2023-05-04T09:03:37.104Z,2.03
2023-05-04T09:06:07.080Z,2.17
2023-05-04T09:08:35.533Z,2.33
2023-05-04T09:11:04.336Z,2.10
2023-05-04T09:13:33.092Z,1.77
2023-05-04T09:16:01.422Z,1.85
2023-05-04T09:18:40.540Z,2.35
2023-05-04T09:21:09.850Z,1.90
2023-05-04T09:23:48.850Z,2.00
2023-05-04T09:26:28.394Z,2.15
2023-05-04T09:28:56.963Z,2.17
2023-05-04T09:31:25.356Z,1.70
2023-05-04T09:33:53.996Z,1.63
2023-05-04T09:36:25.382Z,1.65
2023-05-04T09:38:53.653Z,1.50
2023-05-04T09:41:33.726Z,1.83
2023-05-04T09:44:02.312Z,2.30
2023-05-04T09:46:30.725Z,1.88
2023-05-04T09:48:59.062Z,2.13
2023-05-04T09:51:27.856Z,1.85
2023-05-04T09:53:58.483Z,2.00
2023-05-04T09:56:39.243Z,2.10
2023-05-04T09:59:07.817Z,1.87
2023-05-04T10:01:36.209Z,1.67
2023-05-04T10:04:04.552Z,1.67
2023-05-04T10:06:32.956Z,2.10
2023-05-04T10:09:14.107Z,1.98
2023-05-04T10:11:45.884Z,2.53
2023-05-04T10:14:14.350Z,1.52
2023-05-04T10:16:51.354Z,1.77
2023-05-04T10:19:31.407Z,2.35
2023-05-04T10:22:16.719Z,2.28
2023-05-04T10:25:28.372Z,1.60
2023-05-04T10:28:18.554Z,2.03
2023-05-04T10:30:48.685Z,2.17
2023-05-04T10:33:17.172Z,2.10
2023-05-04T10:35:55.829Z,2.30
2023-05-04T10:38:40.625Z,2.28
2023-05-04T10:41:29.494Z,2.60
2023-05-04T10:44:06.836Z,1.88
2023-05-04T10:46:37.158Z,2.00
2023-05-04T10:49:18.440Z,2.03
2023-05-04T10:51:49.597Z,2.50
2023-05-04T10:56:47.139Z,1.98
2023-05-04T10:59:18.059Z,2.63
2023-05-04T11:01:48.911Z,2.38
2023-05-04T11:04:23.396Z,2.53
2023-05-04T11:07:08.942Z,3.33
2023-05-04T11:09:44.711Z,2.22
2023-05-04T11:12:19.949Z,2.40
2023-05-04T11:14:51.822Z,2.63
2023-05-04T11:17:28.631Z,2.42
2023-05-04T11:19:56.984Z,2.08
2023-05-04T11:22:27.608Z,2.80
2023-05-04T11:27:29.320Z,2.53
2023-05-04T11:30:01.961Z,2.88
2023-05-04T11:32:40.390Z,2.75
2023-05-04T11:35:25.162Z,3.55
2023-05-04T11:37:53.891Z,2.42
2023-05-04T11:40:27.117Z,2.60
2023-05-04T11:42:57.264Z,2.67
2023-05-04T11:45:31.064Z,2.70
2023-05-04T11:48:04.596Z,2.20
2023-05-04T11:50:35.250Z,3.20
2023-05-04T11:55:38.587Z,2.65
2023-05-04T11:58:12.296Z,2.97
2023-05-04T12:00:44.489Z,2.90
2023-05-04T12:03:43.310Z,3.30
2023-05-04T12:06:21.829Z,2.47
2023-05-04T12:08:49.961Z,2.40
2023-05-04T12:11:21.961Z,3.22
2023-05-04T12:14:01.365Z,3.08
2023-05-04T12:16:32.917Z,2.45
2023-05-04T12:19:14.155Z,3.20
2023-05-04T12:21:58.759Z,2.60
2023-05-04T12:24:28.510Z,2.70
2023-05-04T12:26:56.294Z,3.00
2023-05-04T12:29:24.488Z,2.88
2023-05-04T12:31:53.443Z,2.47
2023-05-04T12:34:21.479Z,2.65
2023-05-04T12:36:51.452Z,2.58
2023-05-04T12:39:19.899Z,2.20
2023-05-04T12:41:48.977Z,2.28
2023-05-04T12:44:17.543Z,2.97
2023-05-04T12:46:45.959Z,2.78
2023-05-04T12:49:15.189Z,2.50
2023-05-04T12:51:44.331Z,2.60
2023-05-04T12:54:12.314Z,2.80
2023-05-04T12:56:40.500Z,2.33
2023-05-04T12:59:11.429Z,2.88
2023-05-04T13:01:41.969Z,2.25
2023-05-04T13:04:11.012Z,2.85
2023-05-04T13:06:39.340Z,2.10
2023-05-04T13:09:07.660Z,2.28
2023-05-04T13:11:36.154Z,2.80
2023-05-04T13:14:04.318Z,2.30
2023-05-04T13:16:32.665Z,3.50
2023-05-04T13:19:05.470Z,2.78
2023-05-04T13:21:33.594Z,2.90
2023-05-04T13:24:01.958Z,2.55
2023-05-04T13:26:30.329Z,2.40
2023-05-04T13:28:58.707Z,2.20
2023-05-04T13:31:27.146Z,2.30
2023-05-04T13:33:55.374Z,2.40
2023-05-04T13:36:23.576Z,2.47
2023-05-04T13:38:51.922Z,2.08
2023-05-04T13:41:21.012Z,2.40
2023-05-04T13:43:52.279Z,2.95
2023-05-04T13:46:20.317Z,2.42
2023-05-04T13:48:50.041Z,2.03
2023-05-04T13:51:18.253Z,3.13
2023-05-04T13:53:46.709Z,3.20
2023-05-04T13:56:15.084Z,3.40
2023-05-04T13:58:43.246Z,3.22
2023-05-04T14:01:12.106Z,2.38
2023-05-04T14:03:40.188Z,2.92
2023-05-04T14:06:08.325Z,2.20
2023-05-04T14:08:36.514Z,2.38
2023-05-04T14:11:07.499Z,2.33
2023-05-04T14:13:35.642Z,2.20
2023-05-04T14:16:04.040Z,2.70
2023-05-04T14:18:33.161Z,2.92
2023-05-04T14:21:01.190Z,2.53
2023-05-04T14:23:29.189Z,3.13
2023-05-04T14:25:57.565Z,2.78
2023-05-04T14:28:26.351Z,2.63
2023-05-04T14:30:54.645Z,2.42
2023-05-04T14:33:22.756Z,2.83
2023-05-04T14:35:50.961Z,2.60
2023-05-04T14:38:19.209Z,3.03
2023-05-04T14:40:49.546Z,2.50
2023-05-04T14:43:17.936Z,2.80
2023-05-04T14:45:46.645Z,2.10
2023-05-04T14:48:14.855Z,2.40
2023-05-04T14:50:43.013Z,2.63
2023-05-04T14:53:11.380Z,2.30
2023-05-04T14:55:42.207Z,2.53
2023-05-04T15:00:38.640Z,2.50
2023-05-04T15:03:07.444Z,2.85
2023-05-04T15:05:37.192Z,2.28
2023-05-04T15:08:06.692Z,2.40
2023-05-04T15:10:35.004Z,2.45
2023-05-04T15:13:03.897Z,2.65
2023-05-04T15:15:32.083Z,2.63
2023-05-04T15:18:00.531Z,2.25
2023-05-04T15:20:28.823Z,2.72
2023-05-04T15:22:56.927Z,2.53
2023-05-04T15:25:25.451Z,2.10
2023-05-04T15:27:54.113Z,2.38
2023-05-04T15:30:23.688Z,3.42
2023-05-04T15:32:52.022Z,2.10
2023-05-04T15:35:26.077Z,2.45
2023-05-04T15:37:54.231Z,2.22
2023-05-04T15:40:22.550Z,2.78
2023-05-04T15:42:50.953Z,2.30
2023-05-04T15:45:19.286Z,2.33
2023-05-04T15:47:47.750Z,2.17
2023-05-04T15:50:16.329Z,2.28
2023-05-04T15:52:44.601Z,2.90
2023-05-04T15:55:25.517Z,2.42
2023-05-04T15:57:54.301Z,2.30
2023-05-04T16:00:22.518Z,2.90
2023-05-04T16:02:51.106Z,2.60
2023-05-04T16:05:19.535Z,1.98
2023-05-04T16:07:48.109Z,1.95
2023-05-04T16:10:16.640Z,2.30
2023-05-04T16:12:44.872Z,2.10
2023-05-04T16:15:13.153Z,1.88
2023-05-04T16:17:41.308Z,1.63
2023-05-04T16:20:10.402Z,2.20
2023-05-04T16:22:38.877Z,2.10
2023-05-04T16:25:09.572Z,2.20
2023-05-04T16:27:39.641Z,1.60
2023-05-04T16:30:08.711Z,2.08
2023-05-04T16:32:37.279Z,2.03
2023-05-04T16:35:05.971Z,2.08
2023-05-04T16:37:37.103Z,1.95
2023-05-04T16:42:46.121Z,1.50
2023-05-04T16:45:15.033Z,2.10
2023-05-04T16:47:44.188Z,2.25
2023-05-04T16:50:13.505Z,1.70
2023-05-04T16:52:44.931Z,1.98
2023-05-04T16:55:13.496Z,1.63
2023-05-04T16:57:41.844Z,1.73
2023-05-04T17:00:12.328Z,1.60
2023-05-04T17:02:40.698Z,1.40
2023-05-04T17:05:10.788Z,1.92
2023-05-04T17:07:43.655Z,1.75
2023-05-04T17:10:12.756Z,1.52
2023-05-04T17:12:42.292Z,1.42
2023-05-04T17:15:11.681Z,2.05
2023-05-04T17:17:41.720Z,1.90
2023-05-04T17:20:15.149Z,1.55
2023-05-04T17:22:44.779Z,1.35
2023-05-04T17:25:14.730Z,1.50
2023-05-04T17:27:44.107Z,1.60
2023-05-04T17:30:13.224Z,1.50
2023-05-04T17:32:42.351Z,1.45
2023-05-04T17:35:21.013Z,1.83
2023-05-04T17:37:53.439Z,1.50
2023-05-04T17:40:22.666Z,1.13
2023-05-04T17:42:50.877Z,1.42
2023-05-04T17:45:22.166Z,1.42
2023-05-04T17:47:53.198Z,1.60
2023-05-04T17:50:21.747Z,1.40
2023-05-04T17:52:55.047Z,1.27
2023-05-04T17:55:25.266Z,1.60
2023-05-04T17:57:57.177Z,1.23
2023-05-04T18:00:30.858Z,1.50
2023-05-04T18:02:59.152Z,1.45
2023-05-04T18:05:27.733Z,1.70
2023-05-04T18:07:55.630Z,1.40
2023-05-04T18:10:23.770Z,1.10
2023-05-04T18:12:52.255Z,1.65
2023-05-04T18:15:24.555Z,1.50
2023-05-04T18:17:55.190Z,1.60
2023-05-04T18:20:23.441Z,2.80
2023-05-04T18:22:52.046Z,1.75
2023-05-04T18:25:20.111Z,1.90
2023-05-04T18:27:48.633Z,1.67
2023-05-04T18:30:17.112Z,1.63
2023-05-04T18:32:45.647Z,1.70
2023-05-04T18:35:14.129Z,1.58
2023-05-04T18:37:42.363Z,1.55
2023-05-04T18:40:13.825Z,1.13
2023-05-04T18:42:42.472Z,1.70
2023-05-04T18:45:11.761Z,1.23
2023-05-04T18:47:40.199Z,1.73
2023-05-04T18:50:10.016Z,1.85
2023-05-04T18:52:38.667Z,1.63
2023-05-04T18:55:07.776Z,1.55
2023-05-04T18:57:36.023Z,1.25
2023-05-04T19:00:07.283Z,1.80
2023-05-04T19:02:35.729Z,1.73
2023-05-04T19:05:04.101Z,1.98
2023-05-04T19:07:32.354Z,1.98
2023-05-04T19:10:00.570Z,1.80
2023-05-04T19:12:29.045Z,1.45
2023-05-04T19:14:57.072Z,1.77
2023-05-04T19:17:25.428Z,1.88
2023-05-04T19:19:53.853Z,1.90
2023-05-04T19:22:22.132Z,1.60
2023-05-04T19:24:56.028Z,2.08
2023-05-04T19:27:24.226Z,1.80
2023-05-04T19:29:52.092Z,2.20
2023-05-04T19:32:24.819Z,1.83
2023-05-04T19:34:53.792Z,2.10
2023-05-04T19:37:24.826Z,1.80
2023-05-04T19:39:55.436Z,1.73
2023-05-04T19:42:23.580Z,2.03
2023-05-04T19:44:51.590Z,2.50
2023-05-04T19:47:19.613Z,1.60
2023-05-04T19:49:48.025Z,1.88
2023-05-04T19:52:16.923Z,1.85
2023-05-04T19:54:48.647Z,1.75
2023-05-04T19:57:16.908Z,1.90
2023-05-04T19:59:47.020Z,1.67
2023-05-04T20:02:15.619Z,2.38
2023-05-04T20:04:44.085Z,2.17
2023-05-04T20:07:12.495Z,1.85
2023-05-04T20:09:40.625Z,2.05
2023-05-04T20:12:08.513Z,1.70
2023-05-04T20:14:37.139Z,2.20
2023-05-04T20:17:05.395Z,2.08
2023-05-04T20:19:33.481Z,1.90
2023-05-04T20:22:02.130Z,2.25
2023-05-04T20:24:30.527Z,1.95
2023-05-04T20:26:58.782Z,2.25
2023-05-04T20:29:26.846Z,1.88
2023-05-04T20:31:55.029Z,2.17
2023-05-04T20:34:23.481Z,2.08
2023-05-04T20:36:51.611Z,1.60
2023-05-04T20:39:20.550Z,1.95
2023-05-04T20:41:52.077Z,1.73
2023-05-04T20:44:20.384Z,1.85
2023-05-04T20:46:48.844Z,1.90
2023-05-04T20:49:24.130Z,2.47
2023-05-04T20:51:52.806Z,1.77
2023-05-04T20:54:21.468Z,1.85
2023-05-04T20:56:49.514Z,2.38
2023-05-04T20:59:21.848Z,2.08
2023-05-04T21:01:55.120Z,1.92
2023-05-04T21:04:23.842Z,1.88
2023-05-04T21:06:52.014Z,2.28
2023-05-04T21:09:32.251Z,2.05
2023-05-04T21:12:02.745Z,1.90
2023-05-04T21:14:35.994Z,2.45
2023-05-04T21:17:04.360Z,2.50
2023-05-04T21:19:33.092Z,2.20
2023-05-04T21:22:01.533Z,2.13
2023-05-04T21:24:32.347Z,2.20
2023-05-04T21:27:00.894Z,2.17
2023-05-04T21:29:32.155Z,2.42
2023-05-04T21:32:00.684Z,1.92
2023-05-04T21:34:29.251Z,2.55
2023-05-04T21:36:57.337Z,2.55
2023-05-04T21:39:26.401Z,2.00
2023-05-04T21:41:54.824Z,2.63
2023-05-04T21:44:23.231Z,2.78
2023-05-04T21:46:52.052Z,2.35
2023-05-04T21:49:24.428Z,2.50
2023-05-04T21:51:52.654Z,2.47
2023-05-04T21:54:26.198Z,2.25
2023-05-04T21:56:54.741Z,2.20
2023-05-04T21:59:26.172Z,2.17
2023-05-04T22:01:54.412Z,2.47
2023-05-04T22:04:27.450Z,2.30
2023-05-04T22:06:56.212Z,2.47
2023-05-04T22:09:27.707Z,2.42
2023-05-04T22:12:00.326Z,2.63
2023-05-04T22:14:28.858Z,2.58
2023-05-04T22:16:57.630Z,2.30
2023-05-04T22:19:26.352Z,2.75
2023-05-04T22:21:55.122Z,2.63
2023-05-04T22:24:23.108Z,2.20
2023-05-04T22:26:55.343Z,2.65
2023-05-04T22:29:26.748Z,2.40
2023-05-04T22:31:54.923Z,2.88
2023-05-04T22:34:23.169Z,2.80
2023-05-04T22:36:55.329Z,3.38
2023-05-04T22:41:54.225Z,2.55
2023-05-04T22:44:22.529Z,2.50
2023-05-04T22:46:51.159Z,2.30
2023-05-04T22:49:23.173Z,2.50
2023-05-04T22:51:52.210Z,2.63
2023-05-04T22:54:21.242Z,2.83
2023-05-04T22:56:53.315Z,2.50
2023-05-04T22:59:30.277Z,2.75
2023-05-04T23:02:01.280Z,2.47
2023-05-04T23:04:33.029Z,3.25
2023-05-04T23:07:01.814Z,2.75
2023-05-04T23:09:30.839Z,3.42
2023-05-04T23:12:02.663Z,2.65
2023-05-04T23:17:01.941Z,2.55
2023-05-04T23:19:34.573Z,2.53
2023-05-04T23:22:06.049Z,2.90
2023-05-04T23:24:34.065Z,2.60
2023-05-04T23:27:05.344Z,2.72
2023-05-04T23:29:38.662Z,2.83
2023-05-04T23:32:07.064Z,2.60
2023-05-04T23:34:35.529Z,2.20
2023-05-04T23:37:03.864Z,2.55
2023-05-04T23:39:41.085Z,3.08
2023-05-04T23:42:11.501Z,4.13
2023-05-04T23:44:41.316Z,3.00
2023-05-04T23:47:09.382Z,3.40
2023-05-04T23:49:37.340Z,3.25
2023-05-04T23:52:05.326Z,3.00
2023-05-04T23:54:33.906Z,2.92
2023-05-04T23:57:01.968Z,3.30
2023-05-04T23:59:34.384Z,2.70
